RJSK

Akita Airport

Akita, Japan
METAR RJSK 202150Z 14004KT 100V160 1200 R28/0450V1100U BCFG BR SCT001 BKN002 BKN005 22/21 Q1011 RMK 4ST001 6ST002 7ST005 A2987
Observed Flight Rules
Jul-20 @ 21:50 UTC (16 minutes ago) Instrument Flight Rules
Wind Visibility Clouds Conditions
140° at 4 knots 1,207 meters
  • Scattered at 100' AGL
  • Broken at 200' AGL
  • Broken at 500' AGL
  • Patches of
  • Fog
  • Mist
Temperatures Readings
Current 22°C / 72°F
Dewpoint 21°C / 70°F
Humidity 94%
Altimeter 29.85" Hg
Pressure 1011 hPa
Elevation 96
METAR RJSK 202150Z 14004KT 100V160 1200 R28/0450V1100U BCFG BR SCT001 BKN002 BKN005 22/21 Q1011 RMK 4ST001 6ST002 7ST005 A2987
Observed Flight Rules
Jul-20 @ 21:50 UTC
(16 minutes ago)
LIFR
Wind Visibility
140° at 4 knots 1,207 meters
Clouds
  • Scattered at 100' AGL
  • Broken at 200' AGL
  • Broken at 500' AGL
Conditions
  • Patches of
  • Fog
  • Mist
Temperature Dewpoint
22°C / 72°F 21°C / 70°F
Humidity Altimeter Pressure
94% 29.85" Hg 1011 hPa